createdAt,value
2018-11-14T00:00:52.832Z,0.00
2018-11-14T00:01:52.820Z,0.00
2018-11-14T00:02:52.812Z,0.00
2018-11-14T00:03:52.803Z,0.00
2018-11-14T00:04:52.787Z,0.00
2018-11-14T00:05:52.775Z,0.00
2018-11-14T00:06:52.765Z,0.00
2018-11-14T00:07:52.753Z,0.00
2018-11-14T00:08:52.743Z,0.00
2018-11-14T00:09:52.731Z,0.00
2018-11-14T00:10:52.720Z,0.00
2018-11-14T00:11:52.709Z,0.00
2018-11-14T00:12:52.748Z,0.00
2018-11-14T00:13:52.687Z,0.00
2018-11-14T00:14:52.679Z,0.00
2018-11-14T00:15:52.666Z,0.00
2018-11-14T00:16:52.654Z,0.00
2018-11-14T00:17:52.642Z,0.00
2018-11-14T00:18:52.637Z,0.00
2018-11-14T00:19:52.627Z,0.00
2018-11-14T00:20:52.610Z,0.00
2018-11-14T00:21:52.598Z,0.00
2018-11-14T00:22:52.587Z,0.00
2018-11-14T00:23:52.577Z,0.00
2018-11-14T00:24:52.937Z,0.00
2018-11-14T00:25:52.554Z,0.00
2018-11-14T00:26:52.934Z,0.00
2018-11-14T00:27:52.576Z,0.00
2018-11-14T00:28:52.521Z,0.00
2018-11-14T00:29:52.510Z,0.00
2018-11-14T00:30:52.501Z,0.00
2018-11-14T00:31:52.488Z,0.00
2018-11-14T00:32:52.479Z,0.00
2018-11-14T00:33:52.466Z,0.00
2018-11-14T00:34:52.587Z,0.00
2018-11-14T00:35:52.445Z,0.00
2018-11-14T00:36:52.434Z,0.00
2018-11-14T00:37:52.421Z,0.00
2018-11-14T00:38:52.411Z,0.00
2018-11-14T00:39:52.402Z,0.00
2018-11-14T00:40:52.390Z,0.00
2018-11-14T00:41:52.377Z,0.00
2018-11-14T00:42:52.366Z,0.00
2018-11-14T00:43:52.361Z,0.00
2018-11-14T00:44:52.346Z,0.00
2018-11-14T00:45:52.338Z,0.00
2018-11-14T00:46:52.322Z,0.00
2018-11-14T00:47:52.314Z,0.00
2018-11-14T00:48:52.301Z,0.00
2018-11-14T00:49:52.288Z,0.00
2018-11-14T00:50:52.278Z,0.00
2018-11-14T00:51:52.315Z,0.00
2018-11-14T00:52:52.257Z,0.00
2018-11-14T00:53:52.245Z,0.00
2018-11-14T00:54:52.234Z,0.00
2018-11-14T00:55:52.227Z,0.00
2018-11-14T00:56:52.216Z,0.00
2018-11-14T00:57:52.255Z,0.00
2018-11-14T00:58:52.191Z,0.00
2018-11-14T00:59:52.189Z,0.00
2018-11-14T01:00:52.167Z,0.00
2018-11-14T01:01:52.157Z,0.00
2018-11-14T01:02:52.146Z,0.00
2018-11-14T01:03:52.134Z,0.00
2018-11-14T01:04:52.124Z,0.00
2018-11-14T01:05:52.115Z,0.00
2018-11-14T01:06:52.099Z,0.00
2018-11-14T01:07:52.090Z,0.00
2018-11-14T01:08:52.090Z,0.00
2018-11-14T01:09:52.066Z,0.00
2018-11-14T01:10:52.055Z,0.00
2018-11-14T01:11:52.044Z,0.00
2018-11-14T01:12:52.032Z,0.00
2018-11-14T01:13:52.022Z,0.00
2018-11-14T01:14:52.009Z,0.00
2018-11-14T01:15:51.999Z,0.00
2018-11-14T01:16:51.988Z,0.00
2018-11-14T01:17:51.976Z,0.00
2018-11-14T01:18:51.965Z,0.00
2018-11-14T01:19:51.954Z,0.00
2018-11-14T01:20:51.944Z,0.00
2018-11-14T01:21:51.934Z,0.00
2018-11-14T01:22:51.919Z,0.00
2018-11-14T01:23:51.958Z,0.00
2018-11-14T01:24:51.897Z,0.00
2018-11-14T01:25:51.890Z,0.00
2018-11-14T01:26:51.889Z,0.00
2018-11-14T01:27:51.866Z,0.00
2018-11-14T01:28:51.853Z,0.00
2018-11-14T01:29:51.839Z,0.00
2018-11-14T01:30:51.828Z,0.00
2018-11-14T01:31:51.822Z,0.00
2018-11-14T01:32:51.810Z,0.00
2018-11-14T01:33:51.837Z,0.00
2018-11-14T01:34:51.783Z,0.00
2018-11-14T01:35:51.829Z,0.00
2018-11-14T01:36:51.760Z,0.00
2018-11-14T01:37:51.748Z,0.00
2018-11-14T01:38:51.987Z,0.00
2018-11-14T01:39:51.725Z,0.00
2018-11-14T01:40:51.720Z,0.00
2018-11-14T01:41:51.705Z,0.00
2018-11-14T01:42:51.696Z,0.00
2018-11-14T01:43:51.680Z,0.00
2018-11-14T01:44:51.668Z,0.00
2018-11-14T01:45:51.658Z,0.00
2018-11-14T01:46:51.848Z,0.00
2018-11-14T01:47:51.635Z,0.00
2018-11-14T01:48:51.623Z,0.00
2018-11-14T01:49:51.613Z,0.00
2018-11-14T01:50:51.599Z,0.00
2018-11-14T01:51:51.589Z,0.00
2018-11-14T01:52:51.579Z,0.00
2018-11-14T01:53:51.625Z,0.00
2018-11-14T01:54:51.554Z,0.00
2018-11-14T01:55:51.543Z,0.00
2018-11-14T01:56:51.742Z,0.00
2018-11-14T01:57:51.518Z,0.00
2018-11-14T01:58:51.507Z,0.00
2018-11-14T01:59:51.496Z,0.00
2018-11-14T02:00:51.484Z,0.00
2018-11-14T02:01:51.475Z,0.00
2018-11-14T02:02:51.462Z,0.00
2018-11-14T02:03:51.449Z,0.00
2018-11-14T02:04:51.438Z,0.00
2018-11-14T02:05:51.426Z,0.00
2018-11-14T02:06:51.415Z,0.00
2018-11-14T02:07:51.404Z,0.00
2018-11-14T02:08:51.393Z,0.00
2018-11-14T02:09:51.380Z,0.00
2018-11-14T02:10:51.369Z,0.00
2018-11-14T02:11:51.364Z,0.00
2018-11-14T02:12:51.350Z,0.00
2018-11-14T02:13:51.334Z,0.00
2018-11-14T02:14:51.323Z,0.00
2018-11-14T02:15:51.312Z,0.00
2018-11-14T02:16:51.300Z,0.00
2018-11-14T02:17:51.491Z,0.00
2018-11-14T02:18:51.277Z,0.00
2018-11-14T02:19:51.266Z,0.00
2018-11-14T02:20:51.254Z,0.00
2018-11-14T02:21:51.242Z,0.00
2018-11-14T02:22:51.232Z,0.00
2018-11-14T02:23:51.272Z,0.00
2018-11-14T02:24:51.208Z,0.00
2018-11-14T02:25:51.196Z,0.00
2018-11-14T02:26:51.184Z,0.00
2018-11-14T02:27:51.180Z,0.00
2018-11-14T02:28:51.161Z,0.00
2018-11-14T02:29:51.150Z,0.00
2018-11-14T02:30:51.139Z,0.00
2018-11-14T02:31:51.128Z,0.00
2018-11-14T02:32:51.119Z,0.00
2018-11-14T02:33:51.105Z,0.00
2018-11-14T02:34:51.127Z,0.00
2018-11-14T02:35:51.084Z,0.00
2018-11-14T02:36:51.070Z,0.00
2018-11-14T02:37:51.059Z,0.00
2018-11-14T02:38:51.047Z,0.00
2018-11-14T02:39:51.035Z,0.00
2018-11-14T02:40:51.023Z,0.00
2018-11-14T02:41:51.011Z,0.00
2018-11-14T02:42:51.000Z,0.00
2018-11-14T02:43:50.988Z,0.00
2018-11-14T02:44:50.978Z,0.00
2018-11-14T02:45:50.965Z,0.00
2018-11-14T02:46:50.954Z,0.00
2018-11-14T02:47:50.942Z,0.00
2018-11-14T02:48:50.931Z,0.00
2018-11-14T02:49:50.919Z,0.00
2018-11-14T02:50:50.907Z,0.00
2018-11-14T02:51:50.896Z,0.00
2018-11-14T02:52:50.884Z,0.00
2018-11-14T02:53:50.871Z,0.00
2018-11-14T02:54:50.860Z,0.00
2018-11-14T02:55:50.849Z,0.00
2018-11-14T02:56:50.838Z,0.00
2018-11-14T02:57:50.825Z,0.00
2018-11-14T02:58:50.813Z,0.00
2018-11-14T02:59:51.053Z,0.00
2018-11-14T03:00:50.791Z,0.00
2018-11-14T03:01:50.777Z,0.00
2018-11-14T03:02:50.970Z,0.00
2018-11-14T03:03:50.756Z,0.00
2018-11-14T03:04:50.744Z,0.00
2018-11-14T03:05:50.732Z,0.00
2018-11-14T03:06:50.721Z,0.00
2018-11-14T03:07:50.709Z,0.00
2018-11-14T03:08:50.698Z,0.00
2018-11-14T03:09:50.685Z,0.00
2018-11-14T03:10:50.672Z,0.00
2018-11-14T03:11:50.662Z,0.00
2018-11-14T03:12:50.901Z,0.00
2018-11-14T03:13:50.641Z,0.00
2018-11-14T03:14:50.627Z,0.00
2018-11-14T03:15:50.866Z,0.00
2018-11-14T03:16:50.604Z,0.00
2018-11-14T03:17:50.592Z,0.00
2018-11-14T03:18:50.584Z,0.00
2018-11-14T03:19:50.571Z,0.00
2018-11-14T03:20:50.559Z,0.00
2018-11-14T03:21:50.545Z,0.00
2018-11-14T03:22:50.535Z,0.00
2018-11-14T03:23:50.525Z,0.00
2018-11-14T03:24:50.510Z,0.00
2018-11-14T03:25:50.498Z,0.00
2018-11-14T03:26:50.486Z,0.00
2018-11-14T03:27:50.474Z,0.00
2018-11-14T03:28:50.464Z,0.00
2018-11-14T03:29:50.451Z,0.00
2018-11-14T03:30:50.488Z,0.00
2018-11-14T03:31:50.428Z,0.00
2018-11-14T03:32:50.417Z,0.00
2018-11-14T03:33:50.403Z,0.00
2018-11-14T03:34:50.393Z,0.00
2018-11-14T03:35:50.381Z,0.00
2018-11-14T03:36:50.369Z,0.00
2018-11-14T03:37:50.356Z,0.00
2018-11-14T03:38:50.344Z,0.00
2018-11-14T03:39:50.333Z,0.00
2018-11-14T03:40:50.321Z,0.00
2018-11-14T03:41:50.309Z,0.00
2018-11-14T03:42:50.298Z,0.00
2018-11-14T03:43:50.285Z,0.00
2018-11-14T03:44:50.476Z,0.00
2018-11-14T03:45:50.310Z,0.00
2018-11-14T03:46:50.251Z,0.00
2018-11-14T03:47:50.240Z,0.00
2018-11-14T03:48:50.227Z,0.00
2018-11-14T03:49:50.416Z,0.00
2018-11-14T03:50:50.201Z,0.00
2018-11-14T03:51:50.191Z,0.00
2018-11-14T03:52:50.179Z,0.00
2018-11-14T03:53:50.169Z,0.00
2018-11-14T03:54:50.155Z,0.00
2018-11-14T03:55:50.144Z,0.00
2018-11-14T03:56:50.132Z,0.00
2018-11-14T03:57:50.119Z,0.00
2018-11-14T03:58:50.112Z,0.00
2018-11-14T03:59:50.097Z,0.00
2018-11-14T04:01:50.074Z,0.00
2018-11-14T04:02:50.064Z,0.00
2018-11-14T04:03:50.050Z,0.00
2018-11-14T04:04:50.038Z,0.00
2018-11-14T04:05:50.026Z,0.00
2018-11-14T04:06:50.015Z,0.00
2018-11-14T04:07:50.002Z,0.00
2018-11-14T04:08:50.010Z,0.00
2018-11-14T04:09:49.977Z,0.00
2018-11-14T04:10:49.966Z,0.00
2018-11-14T04:11:49.953Z,0.00
2018-11-14T04:12:49.950Z,0.00
2018-11-14T04:13:49.929Z,0.00
2018-11-14T04:14:50.122Z,0.00
2018-11-14T04:15:49.910Z,0.00
2018-11-14T04:16:49.894Z,0.00
2018-11-14T04:17:49.881Z,0.00
2018-11-14T04:18:49.870Z,0.00
2018-11-14T04:19:49.860Z,0.00
2018-11-14T04:20:49.846Z,0.00
2018-11-14T04:21:50.338Z,0.00
2018-11-14T04:22:49.821Z,0.00
2018-11-14T04:23:49.809Z,0.00
2018-11-14T04:24:49.797Z,0.00
2018-11-14T04:25:49.784Z,0.00
2018-11-14T04:26:49.772Z,0.00
2018-11-14T04:27:49.761Z,0.00
2018-11-14T04:28:49.748Z,0.00
2018-11-14T04:29:49.738Z,0.00
2018-11-14T04:30:49.728Z,0.00
2018-11-14T04:31:49.712Z,0.00
2018-11-14T04:32:49.701Z,0.00
2018-11-14T04:33:49.688Z,0.00
2018-11-14T04:34:49.675Z,0.00
2018-11-14T04:35:49.670Z,0.00
2018-11-14T04:36:49.656Z,0.00
2018-11-14T04:37:49.642Z,0.00
2018-11-14T04:38:49.627Z,0.00
2018-11-14T04:39:49.614Z,0.00
2018-11-14T04:40:49.603Z,0.00
2018-11-14T04:41:49.589Z,0.00
2018-11-14T04:42:49.578Z,0.00
2018-11-14T04:43:49.567Z,0.00
2018-11-14T04:44:49.567Z,0.00
2018-11-14T04:45:49.542Z,0.00
2018-11-14T04:46:49.734Z,0.00
2018-11-14T04:47:49.613Z,0.00
2018-11-14T04:48:49.509Z,0.00
2018-11-14T04:49:49.493Z,0.00
2018-11-14T04:50:49.482Z,0.00
2018-11-14T04:51:49.470Z,0.00
2018-11-14T04:52:49.464Z,0.00
2018-11-14T04:53:49.449Z,0.00
2018-11-14T04:54:49.437Z,0.00
2018-11-14T04:55:49.422Z,0.00
2018-11-14T04:56:49.410Z,0.00
2018-11-14T04:57:49.398Z,0.00
2018-11-14T04:58:49.387Z,0.00
2018-11-14T04:59:49.374Z,0.00
2018-11-14T05:00:49.362Z,0.00
2018-11-14T05:01:49.348Z,0.00
2018-11-14T05:02:49.342Z,0.00
2018-11-14T05:03:49.325Z,0.00
2018-11-14T05:04:49.314Z,0.00
2018-11-14T05:05:49.301Z,0.00
2018-11-14T05:06:49.289Z,0.00
2018-11-14T05:07:49.277Z,0.00
2018-11-14T05:08:49.265Z,0.00
2018-11-14T05:09:49.253Z,0.00
2018-11-14T05:10:49.240Z,0.00
2018-11-14T05:11:49.229Z,0.00
2018-11-14T05:12:49.291Z,0.00
2018-11-14T05:13:49.205Z,0.00
2018-11-14T05:14:49.193Z,0.00
2018-11-14T05:15:49.184Z,0.00
2018-11-14T05:16:49.169Z,0.00
2018-11-14T05:17:49.156Z,0.00
2018-11-14T05:18:49.144Z,0.00
2018-11-14T05:19:49.133Z,0.00
2018-11-14T05:20:49.126Z,0.00
2018-11-14T05:21:49.109Z,0.00
2018-11-14T05:22:49.303Z,0.00
2018-11-14T05:23:49.090Z,0.00
2018-11-14T05:24:49.251Z,0.00
2018-11-14T05:25:49.060Z,0.00
2018-11-14T05:26:49.048Z,0.00
2018-11-14T05:27:49.037Z,0.00
2018-11-14T05:28:49.025Z,0.00
2018-11-14T05:29:49.012Z,0.00
2018-11-14T05:30:49.000Z,0.00
2018-11-14T05:31:48.996Z,0.00
2018-11-14T05:32:48.977Z,0.00
2018-11-14T05:33:48.965Z,0.00
2018-11-14T05:34:48.951Z,0.00
2018-11-14T05:35:48.938Z,0.00
2018-11-14T05:36:48.930Z,0.00
2018-11-14T05:37:48.914Z,0.00
2018-11-14T05:38:48.911Z,0.00
2018-11-14T05:39:49.029Z,0.00
2018-11-14T05:40:48.878Z,0.00
2018-11-14T05:41:48.865Z,0.00
2018-11-14T05:42:48.851Z,0.00
2018-11-14T05:43:48.840Z,0.00
2018-11-14T05:44:48.827Z,0.00
2018-11-14T05:45:48.815Z,0.00
2018-11-14T05:46:48.802Z,0.00
2018-11-14T05:47:48.789Z,0.00
2018-11-14T05:48:48.777Z,0.00
2018-11-14T05:49:48.782Z,0.00
2018-11-14T05:50:48.752Z,0.00
2018-11-14T05:51:48.740Z,0.00
2018-11-14T05:52:48.727Z,0.00
2018-11-14T05:53:48.718Z,0.00
2018-11-14T05:54:48.715Z,0.00
2018-11-14T05:55:48.690Z,0.00
2018-11-14T05:56:48.677Z,0.00
2018-11-14T05:57:48.667Z,0.00
2018-11-14T05:58:48.652Z,0.00
2018-11-14T05:59:48.640Z,0.00
2018-11-14T06:00:48.629Z,0.00
2018-11-14T06:01:48.615Z,0.00
2018-11-14T06:02:48.605Z,0.00
2018-11-14T06:03:48.591Z,0.00
2018-11-14T06:04:48.578Z,0.00
2018-11-14T06:05:48.566Z,0.00
2018-11-14T06:06:48.554Z,0.00
2018-11-14T06:07:48.541Z,0.00
2018-11-14T06:08:48.529Z,0.00
2018-11-14T06:09:48.516Z,0.00
2018-11-14T06:10:48.504Z,0.00
2018-11-14T06:11:48.492Z,0.00
2018-11-14T06:12:48.480Z,0.00
2018-11-14T06:13:48.467Z,0.00
2018-11-14T06:14:48.455Z,0.00
2018-11-14T06:15:48.442Z,0.00
2018-11-14T06:16:48.429Z,0.00
2018-11-14T06:17:48.417Z,0.00
2018-11-14T06:18:48.405Z,0.00
2018-11-14T06:19:48.393Z,0.00
2018-11-14T06:20:48.380Z,0.00
2018-11-14T06:21:48.411Z,0.00
2018-11-14T06:22:48.355Z,0.00
2018-11-14T06:23:48.464Z,0.00
2018-11-14T06:24:48.536Z,0.00
2018-11-14T06:25:48.320Z,0.00
2018-11-14T06:26:48.307Z,0.00
2018-11-14T06:27:48.295Z,0.00
2018-11-14T06:28:48.283Z,0.00
2018-11-14T06:29:48.288Z,0.00
2018-11-14T06:30:48.258Z,0.00
2018-11-14T06:31:48.246Z,0.00
2018-11-14T06:32:48.232Z,0.00
2018-11-14T06:33:48.221Z,0.00
2018-11-14T06:34:48.209Z,0.00
2018-11-14T06:35:48.197Z,0.00
2018-11-14T06:36:48.185Z,0.00
2018-11-14T06:37:48.173Z,5.63
2018-11-14T06:38:48.160Z,5.63
2018-11-14T06:39:48.148Z,5.63
2018-11-14T06:40:48.143Z,5.63
2018-11-14T06:41:48.184Z,5.63
2018-11-14T06:42:48.111Z,5.63
2018-11-14T06:43:48.100Z,5.63
2018-11-14T06:44:48.088Z,5.63
2018-11-14T06:45:48.075Z,11.25
2018-11-14T06:46:48.071Z,11.25
2018-11-14T06:47:48.050Z,11.25
2018-11-14T06:48:48.040Z,11.25
2018-11-14T06:49:48.047Z,11.25
2018-11-14T06:50:48.013Z,16.88
2018-11-14T06:51:48.001Z,16.88
2018-11-14T06:52:48.192Z,16.88
2018-11-14T06:53:47.978Z,16.88
2018-11-14T06:54:47.963Z,22.50
2018-11-14T06:55:47.951Z,22.50
2018-11-14T06:56:47.939Z,22.50
2018-11-14T06:57:47.930Z,28.13
2018-11-14T06:58:48.018Z,28.13
2018-11-14T06:59:47.993Z,28.13
2018-11-14T07:00:47.892Z,33.75
2018-11-14T07:01:47.876Z,33.75
2018-11-14T07:02:47.865Z,33.75
2018-11-14T07:03:47.852Z,39.38
2018-11-14T07:04:47.848Z,39.38
2018-11-14T07:05:48.250Z,39.38
2018-11-14T07:06:47.826Z,45.00
2018-11-14T07:07:47.802Z,45.00
2018-11-14T07:08:47.792Z,50.63
2018-11-14T07:09:47.781Z,50.63
2018-11-14T07:10:47.812Z,56.25
2018-11-14T07:11:47.760Z,56.25
2018-11-14T07:12:47.742Z,56.25
2018-11-14T07:13:47.728Z,61.88
2018-11-14T07:14:47.716Z,61.88
2018-11-14T07:15:47.704Z,67.50
2018-11-14T07:16:47.695Z,67.50
2018-11-14T07:17:47.761Z,67.50
2018-11-14T07:18:47.675Z,73.13
2018-11-14T07:19:47.656Z,73.13
2018-11-14T07:20:48.049Z,73.13
2018-11-14T07:21:47.635Z,78.75
2018-11-14T07:22:47.620Z,78.75
2018-11-14T07:23:47.725Z,78.75
2018-11-14T07:24:47.644Z,84.38
2018-11-14T07:25:47.584Z,84.38
2018-11-14T07:26:47.574Z,90.00
2018-11-14T07:27:47.565Z,90.00
2018-11-14T07:28:47.550Z,90.00
2018-11-14T07:29:47.537Z,95.63
2018-11-14T07:30:47.525Z,95.63
2018-11-14T07:31:47.514Z,95.63
2018-11-14T07:32:47.512Z,95.63
2018-11-14T07:33:47.490Z,95.63
2018-11-14T07:34:47.682Z,101.25
2018-11-14T07:35:47.468Z,101.25
2018-11-14T07:36:47.456Z,101.25
2018-11-14T07:37:47.504Z,106.88
2018-11-14T07:38:47.439Z,106.88
2018-11-14T07:39:47.427Z,112.50
2018-11-14T07:40:47.409Z,112.50
2018-11-14T07:41:47.599Z,118.13
2018-11-14T07:42:47.389Z,118.13
2018-11-14T07:43:47.441Z,123.75
2018-11-14T07:44:47.365Z,123.75
2018-11-14T07:45:47.353Z,123.75
2018-11-14T07:46:47.339Z,123.75
2018-11-14T07:47:47.328Z,129.38
2018-11-14T07:48:47.339Z,129.38
2018-11-14T07:49:47.304Z,129.38
2018-11-14T07:50:47.294Z,135.00
2018-11-14T07:51:47.283Z,135.00
2018-11-14T07:52:47.271Z,135.00
2018-11-14T07:53:47.260Z,135.00
2018-11-14T07:54:47.390Z,135.00
2018-11-14T07:55:47.237Z,140.63
2018-11-14T07:56:47.226Z,140.63
2018-11-14T07:57:47.219Z,140.63
2018-11-14T07:58:47.203Z,140.63
2018-11-14T07:59:47.197Z,146.25
2018-11-14T08:00:47.181Z,146.25
2018-11-14T08:01:47.172Z,146.25
2018-11-14T08:02:47.159Z,146.25
2018-11-14T08:03:47.147Z,151.88
2018-11-14T08:04:47.136Z,151.88
2018-11-14T08:05:47.124Z,151.88
2018-11-14T08:06:47.116Z,157.50
2018-11-14T08:07:47.167Z,157.50
2018-11-14T08:08:47.094Z,157.50
2018-11-14T08:09:47.084Z,157.50
2018-11-14T08:10:47.068Z,157.50
2018-11-14T08:11:47.058Z,163.13
2018-11-14T08:12:47.047Z,163.13
2018-11-14T08:13:47.038Z,163.13
2018-11-14T08:14:47.023Z,163.13
2018-11-14T08:15:47.220Z,163.13
2018-11-14T08:16:47.005Z,163.13
2018-11-14T08:17:46.990Z,163.13
2018-11-14T08:18:47.042Z,168.75
2018-11-14T08:19:46.969Z,168.75
2018-11-14T08:20:46.958Z,168.75
2018-11-14T08:21:46.948Z,168.75
2018-11-14T08:22:46.936Z,168.75
2018-11-14T08:23:46.925Z,174.38
2018-11-14T08:24:46.956Z,174.38
2018-11-14T08:25:46.902Z,174.38
2018-11-14T08:26:46.891Z,174.38
2018-11-14T08:27:47.084Z,174.38
2018-11-14T08:28:46.874Z,174.38
2018-11-14T08:29:46.862Z,174.38
2018-11-14T08:30:46.904Z,174.38
2018-11-14T08:31:46.837Z,174.38
2018-11-14T08:32:46.827Z,174.38
2018-11-14T08:33:46.815Z,174.38
2018-11-14T08:34:46.813Z,174.38
2018-11-14T08:35:46.796Z,174.38
2018-11-14T08:36:46.783Z,174.38
2018-11-14T08:37:46.774Z,180.00
2018-11-14T08:38:46.768Z,180.00
2018-11-14T08:39:46.750Z,180.00
2018-11-14T08:40:46.746Z,180.00
2018-11-14T08:41:46.729Z,180.00
2018-11-14T08:42:46.718Z,180.00
2018-11-14T08:43:46.708Z,180.00
2018-11-14T08:44:46.697Z,180.00
2018-11-14T08:45:46.685Z,180.00
2018-11-14T08:46:46.676Z,180.00
2018-11-14T08:47:46.664Z,180.00
2018-11-14T08:48:46.658Z,180.00
2018-11-14T08:49:46.647Z,180.00
2018-11-14T08:50:46.633Z,185.63
2018-11-14T08:51:46.626Z,185.63
2018-11-14T08:52:46.615Z,185.63
2018-11-14T08:53:46.602Z,185.63
2018-11-14T08:54:46.592Z,191.25
2018-11-14T08:55:46.581Z,191.25
2018-11-14T08:56:46.775Z,191.25
2018-11-14T08:57:46.577Z,196.88
2018-11-14T08:58:46.549Z,196.88
2018-11-14T08:59:46.540Z,196.88
2018-11-14T09:00:46.528Z,196.88
2018-11-14T09:01:46.517Z,196.88
2018-11-14T09:02:46.506Z,196.88
2018-11-14T09:03:46.523Z,202.50
2018-11-14T09:04:46.486Z,202.50
2018-11-14T09:05:46.476Z,202.50
2018-11-14T09:06:46.666Z,202.50
2018-11-14T09:07:46.537Z,208.13
2018-11-14T09:08:46.447Z,208.13
2018-11-14T09:09:46.434Z,208.13
2018-11-14T09:10:46.427Z,213.75
2018-11-14T09:11:46.438Z,213.75
2018-11-14T09:12:46.417Z,213.75
2018-11-14T09:13:46.395Z,213.75
2018-11-14T09:14:46.413Z,219.38
2018-11-14T09:15:46.372Z,219.38
2018-11-14T09:16:46.363Z,219.38
2018-11-14T09:17:46.351Z,225.00
2018-11-14T09:18:46.426Z,225.00
2018-11-14T09:19:46.331Z,225.00
2018-11-14T09:20:46.326Z,230.63
2018-11-14T09:21:46.310Z,230.63
2018-11-14T09:22:46.305Z,225.00
2018-11-14T09:23:46.328Z,225.00
2018-11-14T09:24:46.287Z,225.00
2018-11-14T09:25:46.274Z,230.63
2018-11-14T09:26:46.260Z,230.63
2018-11-14T09:27:46.249Z,236.25
2018-11-14T09:28:46.240Z,247.50
2018-11-14T09:29:46.230Z,247.50
2018-11-14T09:30:46.221Z,258.75
2018-11-14T09:31:46.212Z,258.75
2018-11-14T09:32:46.205Z,264.38
2018-11-14T09:33:46.192Z,270.00
2018-11-14T09:34:46.186Z,275.63
2018-11-14T09:35:46.176Z,281.25
2018-11-14T09:36:46.163Z,281.25
2018-11-14T09:37:46.152Z,292.50
2018-11-14T09:38:46.142Z,298.13
2018-11-14T09:39:46.134Z,303.75
2018-11-14T09:40:46.212Z,309.38
2018-11-14T09:41:46.113Z,348.75
2018-11-14T09:42:46.105Z,416.25
2018-11-14T09:43:46.097Z,523.13
2018-11-14T09:44:46.088Z,624.38
2018-11-14T09:45:46.077Z,725.63
2018-11-14T09:46:46.068Z,832.50
2018-11-14T09:47:46.060Z,911.25
2018-11-14T09:48:46.056Z,1001.25
2018-11-14T09:49:46.043Z,1006.88
2018-11-14T09:50:46.036Z,1006.88
2018-11-14T09:51:46.031Z,995.63
2018-11-14T09:52:46.027Z,877.50
2018-11-14T09:53:46.018Z,793.13
2018-11-14T09:54:46.012Z,821.25
2018-11-14T09:55:46.007Z,950.63
2018-11-14T09:56:46.052Z,933.75
2018-11-14T09:57:45.997Z,922.50
2018-11-14T09:58:46.232Z,905.63
2018-11-14T09:59:45.989Z,900.00
2018-11-14T10:00:46.004Z,888.75
2018-11-14T10:01:45.981Z,871.88
2018-11-14T10:02:46.052Z,866.25
2018-11-14T10:03:45.973Z,860.63
2018-11-14T10:04:45.970Z,849.38
2018-11-14T10:05:46.028Z,843.75
2018-11-14T10:06:45.968Z,826.88
2018-11-14T10:07:45.962Z,793.13
2018-11-14T10:08:45.968Z,787.50
2018-11-14T10:09:45.957Z,742.50
2018-11-14T10:10:46.001Z,742.50
2018-11-14T10:11:45.954Z,770.63
2018-11-14T10:12:45.952Z,759.38
2018-11-14T10:13:45.954Z,742.50
2018-11-14T10:14:45.949Z,725.63
2018-11-14T10:15:46.052Z,703.13
2018-11-14T10:16:45.947Z,691.88
2018-11-14T10:17:45.946Z,691.88
2018-11-14T10:18:45.946Z,686.25
2018-11-14T10:19:45.946Z,686.25
2018-11-14T10:20:45.951Z,675.00
2018-11-14T10:21:45.945Z,663.75
2018-11-14T10:22:45.943Z,658.13
2018-11-14T10:23:45.942Z,669.38
2018-11-14T10:24:45.945Z,675.00
2018-11-14T10:25:45.941Z,680.63
2018-11-14T10:26:45.940Z,675.00
2018-11-14T10:27:45.940Z,675.00
2018-11-14T10:28:45.941Z,669.38
2018-11-14T10:29:45.938Z,663.75
2018-11-14T10:30:45.969Z,663.75
2018-11-14T10:31:46.077Z,663.75
2018-11-14T10:32:45.937Z,669.38
2018-11-14T10:33:45.936Z,669.38
2018-11-14T10:34:45.936Z,658.13
2018-11-14T10:35:46.137Z,658.13
2018-11-14T10:36:45.935Z,646.88
2018-11-14T10:37:45.933Z,658.13
2018-11-14T10:38:45.932Z,652.50
2018-11-14T10:39:45.933Z,663.75
2018-11-14T10:40:45.930Z,658.13
2018-11-14T10:41:45.928Z,646.88
2018-11-14T10:42:45.936Z,646.88
2018-11-14T10:43:45.926Z,663.75
2018-11-14T10:44:45.925Z,658.13
2018-11-14T10:45:46.124Z,680.63
2018-11-14T10:46:45.926Z,663.75
2018-11-14T10:47:45.920Z,675.00
2018-11-14T10:48:45.918Z,663.75
2018-11-14T10:49:45.916Z,652.50
2018-11-14T10:50:45.950Z,646.88
2018-11-14T10:51:45.915Z,658.13
2018-11-14T10:52:45.912Z,658.13
2018-11-14T10:53:45.911Z,663.75
2018-11-14T10:54:45.914Z,652.50
2018-11-14T10:55:45.908Z,646.88
2018-11-14T10:56:45.906Z,630.00
2018-11-14T10:57:45.917Z,596.25
2018-11-14T10:58:45.904Z,545.63
2018-11-14T10:59:45.908Z,506.25
2018-11-14T11:00:45.902Z,483.75
2018-11-14T11:01:45.902Z,495.00
2018-11-14T11:02:45.900Z,534.38
2018-11-14T11:03:45.899Z,528.75
2018-11-14T11:04:45.900Z,506.25
2018-11-14T11:05:45.896Z,483.75
2018-11-14T11:06:45.897Z,455.63
2018-11-14T11:07:45.921Z,455.63
2018-11-14T11:08:46.035Z,455.63
2018-11-14T11:09:45.893Z,450.00
2018-11-14T11:10:45.891Z,444.38
2018-11-14T11:11:45.890Z,438.75
2018-11-14T11:12:45.889Z,433.13
2018-11-14T11:13:45.942Z,427.50
2018-11-14T11:14:45.889Z,421.88
2018-11-14T11:15:45.886Z,421.88
2018-11-14T11:16:45.883Z,410.63
2018-11-14T11:17:45.879Z,416.25
2018-11-14T11:18:45.880Z,421.88
2018-11-14T11:19:45.881Z,450.00
2018-11-14T11:20:45.876Z,478.13
2018-11-14T11:21:45.874Z,478.13
2018-11-14T11:22:45.876Z,511.88
2018-11-14T11:23:45.871Z,540.00
2018-11-14T11:24:45.869Z,551.25
2018-11-14T11:25:45.866Z,556.88
2018-11-14T11:26:45.866Z,568.13
2018-11-14T11:27:45.864Z,573.75
2018-11-14T11:28:45.867Z,590.63
2018-11-14T11:29:45.860Z,590.63
2018-11-14T11:30:46.110Z,590.63
2018-11-14T11:31:45.897Z,585.00
2018-11-14T11:32:45.858Z,585.00
2018-11-14T11:33:45.859Z,556.88
2018-11-14T11:34:45.855Z,528.75
2018-11-14T11:35:45.852Z,495.00
2018-11-14T11:36:45.852Z,472.50
2018-11-14T11:37:45.854Z,483.75
2018-11-14T11:38:45.849Z,511.88
2018-11-14T11:39:45.852Z,551.25
2018-11-14T11:40:45.848Z,585.00
2018-11-14T11:41:45.844Z,596.25
2018-11-14T11:42:45.844Z,607.50
2018-11-14T11:43:45.842Z,618.75
2018-11-14T11:44:45.851Z,630.00
2018-11-14T11:45:45.841Z,630.00
2018-11-14T11:46:45.842Z,630.00
2018-11-14T11:47:45.845Z,618.75
2018-11-14T11:48:45.837Z,590.63
2018-11-14T11:49:45.835Z,540.00
2018-11-14T11:50:45.867Z,511.88
2018-11-14T11:51:45.865Z,495.00
2018-11-14T11:52:45.833Z,489.38
2018-11-14T11:53:45.833Z,506.25
2018-11-14T11:54:45.829Z,562.50
2018-11-14T11:55:45.833Z,590.63
2018-11-14T11:56:45.829Z,601.88
2018-11-14T11:57:45.826Z,618.75
2018-11-14T11:58:45.823Z,624.38
2018-11-14T11:59:45.911Z,641.25
2018-11-14T12:00:45.931Z,663.75
2018-11-14T12:01:45.819Z,675.00
2018-11-14T12:02:45.819Z,680.63
2018-11-14T12:03:45.818Z,686.25
2018-11-14T12:04:45.817Z,686.25
2018-11-14T12:05:45.851Z,686.25
2018-11-14T12:06:45.822Z,691.88
2018-11-14T12:07:45.815Z,680.63
2018-11-14T12:08:45.812Z,658.13
2018-11-14T12:09:45.813Z,601.88
2018-11-14T12:10:45.936Z,523.13
2018-11-14T12:11:45.809Z,450.00
2018-11-14T12:12:45.874Z,433.13
2018-11-14T12:13:45.898Z,433.13
2018-11-14T12:14:45.804Z,438.75
2018-11-14T12:15:45.803Z,483.75
2018-11-14T12:16:46.227Z,551.25
2018-11-14T12:17:45.874Z,573.75
2018-11-14T12:18:45.800Z,585.00
2018-11-14T12:19:45.800Z,579.38
2018-11-14T12:20:45.805Z,573.75
2018-11-14T12:21:45.796Z,573.75
2018-11-14T12:22:45.800Z,568.13
2018-11-14T12:23:45.886Z,568.13
2018-11-14T12:24:45.794Z,562.50
2018-11-14T12:25:45.790Z,562.50
2018-11-14T12:26:45.789Z,568.13
2018-11-14T12:27:45.788Z,573.75
2018-11-14T12:28:45.786Z,573.75
2018-11-14T12:29:45.788Z,573.75
2018-11-14T12:30:45.973Z,573.75
2018-11-14T12:31:45.782Z,562.50
2018-11-14T12:32:45.783Z,562.50
2018-11-14T12:33:45.983Z,545.63
2018-11-14T12:34:45.831Z,534.38
2018-11-14T12:35:45.864Z,523.13
2018-11-14T12:36:45.771Z,511.88
2018-11-14T12:37:45.767Z,495.00
2018-11-14T12:38:45.830Z,495.00
2018-11-14T12:39:45.764Z,500.63
2018-11-14T12:40:45.763Z,500.63
2018-11-14T12:41:45.790Z,500.63
2018-11-14T12:42:45.759Z,500.63
2018-11-14T12:43:45.756Z,500.63
2018-11-14T12:44:45.756Z,489.38
2018-11-14T12:45:45.759Z,478.13
2018-11-14T12:46:45.750Z,466.88
2018-11-14T12:47:45.750Z,438.75
2018-11-14T12:48:45.747Z,410.63
2018-11-14T12:49:45.745Z,382.50
2018-11-14T12:50:45.740Z,371.25
2018-11-14T12:51:45.738Z,365.63
2018-11-14T12:52:45.896Z,354.38
2018-11-14T12:53:45.736Z,343.13
2018-11-14T12:54:45.732Z,331.88
2018-11-14T12:55:45.728Z,331.88
2018-11-14T12:56:45.738Z,337.50